Anzoras — EAZC — position and weather

sailwx.info

Track history (hours):
 
Tides and Currents Weather Stations Pressure Air Temp Water Temp Dewpoint Dewpoint Depression Visibility Wind Speed Wind Dir Waves Ship Positions

Anzoras

Last reported at 2018-Jul-18 00:05 UTC. Time now 2018-Jul-18 05:08 UTC.
Position N 36°10' W 007°26'.

Length 100 m; draft 6.4 m.

Type: Cargo ship. MMSI: 224376000.

Date/timePositionNaut miles runAvg speedWind from/ knotsBaromVisibWave heightAir tempDewpointWater temp
2018-Jul-18 00:05N 36°10' W 007°26'211.0
2018-Jul-17 23:55N 36°10' W 007°29'511.0
2018-Jul-17 23:30N 36°11' W 007°34'611.0
2018-Jul-17 22:59N 36°13' W 007°41'811.1
2018-Jul-17 22:15N 36°15' W 007°51'311.3
2018-Jul-17 22:00N 36°16' W 007°54'611.4
2018-Jul-17 21:30N 36°17' W 008°01'1011.4
2018-Jul-17 20:38N 36°20' W 008°13'111.5
2018-Jul-17 20:30N 36°21' W 008°14'611.5
2018-Jul-17 20:00N 36°23' W 008°21'611.3
2018-Jul-17 19:30N 36°24' W 008°28'611.7
2018-Jul-17 19:00N 36°26' W 008°35'611.3
2018-Jul-17 18:30N 36°27' W 008°42'611.3
2018-Jul-17 17:59N 36°29' W 008°49'611.2
2018-Jul-17 17:29N 36°30' W 008°55'511.2
2018-Jul-17 17:00N 36°32' W 009°02'611.6
2018-Jul-17 16:30N 36°33' W 009°09'611.5
2018-Jul-17 16:00N 36°35' W 009°16'711.1
2018-Jul-17 15:21N 36°40' W 009°22'411.1
2018-Jul-17 14:59N 36°43' W 009°25'711.2
2018-Jul-17 14:23N 36°48' W 009°31'411.4
2018-Jul-17 14:00N 36°52' W 009°33'611.4
2018-Jul-17 13:28N 36°58' W 009°34'611.3
2018-Jul-17 12:57N 37°04' W 009°36'711.3
2018-Jul-17 12:22N 37°10' W 009°38'2411.6
2018-Jul-17 10:18N 37°33' W 009°45'3611.7
2018-Jul-17 07:16N 38°08' W 009°54'411.2
2018-Jul-17 06:54N 38°12' W 009°56'511.2
2018-Jul-17 06:27N 38°17' W 009°57'511.2
2018-Jul-17 06:00N 38°22' W 009°59'611.2
2018-Jul-17 05:30N 38°27' W 010°00'611.5
2018-Jul-17 04:58N 38°33' W 010°02'611.4
2018-Jul-17 04:26N 38°39' W 010°04'611.1
2018-Jul-17 03:55N 38°45' W 010°05'510.9
2018-Jul-17 03:28N 38°50' W 010°05'511.2
2018-Jul-17 02:59N 38°55' W 010°03'511.3
2018-Jul-17 02:30N 39°00' W 010°00'711.8
2018-Jul-17 01:53N 39°07' W 009°56'411.7
2018-Jul-17 01:30N 39°11' W 009°54'  
2018-Jul-14 03:50N 39°21' W 009°45'412.5
2018-Jul-14 03:29N 39°16' W 009°46'612.6
2018-Jul-14 02:59N 39°10' W 009°47'611.9
2018-Jul-14 02:30N 39°04' W 009°48'611.9
2018-Jul-14 01:58N 38°58' W 009°49'612.5
2018-Jul-14 01:29N 38°52' W 009°50'1212.3
2018-Jul-14 00:30N 38°40' W 009°49'611.7
2018-Jul-13 23:58N 38°34' W 009°48'611.8
2018-Jul-13 23:30N 38°28' W 009°48'  
2018-Jul-08 08:06N 36°31' W 009°40'4411.1
2018-Jul-08 04:11N 37°15' W 009°48'1111.3
2018-Jul-08 03:11N 37°26' W 009°50'211.4
2018-Jul-08 03:00N 37°28' W 009°51'611.3
2018-Jul-08 02:30N 37°33' W 009°52'1011.6
2018-Jul-08 01:38N 37°43' W 009°54'211.4
2018-Jul-08 01:30N 37°45' W 009°54'611.2
2018-Jul-08 00:58N 37°51' W 009°55'511.0
2018-Jul-08 00:30N 37°56' W 009°56'  
Track history (hours):
 
Tides and Currents Weather Stations Pressure Air Temp Water Temp Dewpoint Dewpoint Depression Visibility Wind Speed Wind Dir Waves Ship Positions

Anzoras

Last reported at 2018-Jul-18 00:05 UTC. Time now 2018-Jul-18 05:08 UTC.
Position N 36°10' W 007°26'.

Length 100 m; draft 6.4 m.

Type: Cargo ship. MMSI: 224376000.

Date/timePositionNaut miles runAvg speedWind from/ knotsBaromVisibWave heightAir tempDewpointWater temp
2018-Jul-18 00:05N 36°10' W 007°26'211.0
2018-Jul-17 23:55N 36°10' W 007°29'511.0
2018-Jul-17 23:30N 36°11' W 007°34'611.0
2018-Jul-17 22:59N 36°13' W 007°41'811.1
2018-Jul-17 22:15N 36°15' W 007°51'311.3
2018-Jul-17 22:00N 36°16' W 007°54'611.4
2018-Jul-17 21:30N 36°17' W 008°01'1011.4
2018-Jul-17 20:38N 36°20' W 008°13'111.5
2018-Jul-17 20:30N 36°21' W 008°14'611.5
2018-Jul-17 20:00N 36°23' W 008°21'611.3
2018-Jul-17 19:30N 36°24' W 008°28'611.7
2018-Jul-17 19:00N 36°26' W 008°35'611.3
2018-Jul-17 18:30N 36°27' W 008°42'611.3
2018-Jul-17 17:59N 36°29' W 008°49'611.2
2018-Jul-17 17:29N 36°30' W 008°55'511.2
2018-Jul-17 17:00N 36°32' W 009°02'611.6
2018-Jul-17 16:30N 36°33' W 009°09'611.5
2018-Jul-17 16:00N 36°35' W 009°16'711.1
2018-Jul-17 15:21N 36°40' W 009°22'411.1
2018-Jul-17 14:59N 36°43' W 009°25'711.2
2018-Jul-17 14:23N 36°48' W 009°31'411.4
2018-Jul-17 14:00N 36°52' W 009°33'611.4
2018-Jul-17 13:28N 36°58' W 009°34'611.3
2018-Jul-17 12:57N 37°04' W 009°36'711.3
2018-Jul-17 12:22N 37°10' W 009°38'2411.6
2018-Jul-17 10:18N 37°33' W 009°45'3611.7
2018-Jul-17 07:16N 38°08' W 009°54'411.2
2018-Jul-17 06:54N 38°12' W 009°56'511.2
2018-Jul-17 06:27N 38°17' W 009°57'511.2
2018-Jul-17 06:00N 38°22' W 009°59'611.2
2018-Jul-17 05:30N 38°27' W 010°00'611.5
2018-Jul-17 04:58N 38°33' W 010°02'611.4
2018-Jul-17 04:26N 38°39' W 010°04'611.1
2018-Jul-17 03:55N 38°45' W 010°05'510.9
2018-Jul-17 03:28N 38°50' W 010°05'511.2
2018-Jul-17 02:59N 38°55' W 010°03'511.3
2018-Jul-17 02:30N 39°00' W 010°00'711.8
2018-Jul-17 01:53N 39°07' W 009°56'411.7
2018-Jul-17 01:30N 39°11' W 009°54'  
2018-Jul-14 03:50N 39°21' W 009°45'412.5
2018-Jul-14 03:29N 39°16' W 009°46'612.6
2018-Jul-14 02:59N 39°10' W 009°47'611.9
2018-Jul-14 02:30N 39°04' W 009°48'611.9
2018-Jul-14 01:58N 38°58' W 009°49'612.5
2018-Jul-14 01:29N 38°52' W 009°50'1212.3
2018-Jul-14 00:30N 38°40' W 009°49'611.7
2018-Jul-13 23:58N 38°34' W 009°48'611.8
2018-Jul-13 23:30N 38°28' W 009°48'  
2018-Jul-08 08:06N 36°31' W 009°40'4411.1
2018-Jul-08 04:11N 37°15' W 009°48'1111.3
2018-Jul-08 03:11N 37°26' W 009°50'211.4
2018-Jul-08 03:00N 37°28' W 009°51'611.3
2018-Jul-08 02:30N 37°33' W 009°52'1011.6
2018-Jul-08 01:38N 37°43' W 009°54'211.4
2018-Jul-08 01:30N 37°45' W 009°54'611.2
2018-Jul-08 00:58N 37°51' W 009°55'511.0
2018-Jul-08 00:30N 37°56' W 009°56'  

Dump ship's entire track history